createdAt,value
2018-01-12T00:01:06.626Z,54.7
2018-01-12T00:11:20.701Z,55
2018-01-12T00:21:35.215Z,55
2018-01-12T00:31:50.540Z,55.6
2018-01-12T00:42:04.686Z,55.9
2018-01-12T00:52:18.370Z,55.5
2018-01-12T01:02:32.359Z,56.4
2018-01-12T01:12:46.072Z,56.5
2018-01-12T01:23:00.409Z,57
2018-01-12T01:33:14.513Z,57
2018-01-12T01:43:29.062Z,57.1
2018-01-12T01:53:43.022Z,57.5
2018-01-12T02:03:58.661Z,57.9
2018-01-12T02:14:12.476Z,58.2
2018-01-12T02:24:27.516Z,58
2018-01-12T02:34:42.636Z,59
2018-01-12T02:44:56.487Z,59
2018-01-12T02:55:10.355Z,59.6
2018-01-12T03:05:24.245Z,59.8
2018-01-12T03:15:38.008Z,59.8
2018-01-12T03:25:52.630Z,60.2
2018-01-12T03:36:06.962Z,61
2018-01-12T03:46:20.618Z,61.2
2018-01-12T03:56:34.464Z,60.8
2018-01-12T04:06:49.194Z,61.5
2018-01-12T04:17:03.887Z,61.2
2018-01-12T04:27:19.003Z,61.7
2018-01-12T04:37:33.759Z,61.7
2018-01-12T04:47:48.105Z,62.2
2018-01-12T04:58:02.839Z,63.4
2018-01-12T05:08:16.876Z,65
2018-01-12T05:18:32.152Z,67.1
2018-01-12T05:28:46.377Z,69.1
2018-01-12T05:39:01.532Z,71.3
2018-01-12T05:49:15.260Z,72.3
2018-01-12T05:59:30.074Z,73.4
2018-01-12T06:09:44.628Z,74.4
2018-01-12T06:19:59.480Z,75.1
2018-01-12T06:30:14.957Z,75.2
2018-01-12T06:40:30.586Z,76.1
2018-01-12T06:50:45.062Z,76.8
2018-01-12T07:00:59.147Z,77.4
2018-01-12T07:11:13.978Z,77.5
2018-01-12T07:21:28.411Z,78.3
2018-01-12T07:31:43.727Z,78.7
2018-01-12T07:41:57.999Z,79
2018-01-12T07:52:11.672Z,79.3
2018-01-12T08:02:27.248Z,79.9
2018-01-12T08:12:41.855Z,80.5
2018-01-12T08:22:56.313Z,80.2
2018-01-12T08:33:11.603Z,80.8
2018-01-12T08:43:25.474Z,81.1
2018-01-12T08:53:40.270Z,81.5
2018-01-12T09:03:54.092Z,81.9
2018-01-12T09:14:08.461Z,82.5
2018-01-12T09:24:23.254Z,82.7
2018-01-12T09:34:38.698Z,83.1
2018-01-12T09:44:52.948Z,83.5
2018-01-12T09:55:08.414Z,83.3
2018-01-12T10:05:22.754Z,83.7
2018-01-12T10:15:37.996Z,84.1
2018-01-12T10:25:52.920Z,83.8
2018-01-12T10:36:07.328Z,83.8
2018-01-12T10:46:22.098Z,83.6
2018-01-12T10:56:36.834Z,84
2018-01-12T11:06:50.793Z,84.3
2018-01-12T11:17:04.648Z,83.8
2018-01-12T11:27:18.768Z,83.5
2018-01-12T11:37:33.487Z,83.7
2018-01-12T11:47:47.825Z,83.8
2018-01-12T11:58:02.796Z,83.5
2018-01-12T12:08:16.486Z,83
2018-01-12T12:18:31.646Z,82.9
2018-01-12T12:28:45.647Z,82.8
2018-01-12T12:39:00.490Z,82.8
2018-01-12T12:49:14.993Z,82.8
2018-01-12T12:59:30.078Z,82.6
2018-01-12T13:09:44.070Z,82.6
2018-01-12T13:19:58.847Z,82.9
2018-01-12T13:30:12.669Z,82.9
2018-01-12T13:40:28.129Z,82.9
2018-01-12T13:50:42.387Z,82.7
2018-01-12T14:00:57.093Z,82.1
2018-01-12T14:11:11.911Z,82.4
2018-01-12T14:21:27.157Z,82.1
2018-01-12T14:31:41.746Z,82.1
2018-01-12T14:41:57.614Z,82.3
2018-01-12T14:52:11.198Z,82.1
2018-01-12T15:02:25.145Z,81.9
2018-01-12T15:12:39.616Z,82
2018-01-12T15:22:55.268Z,81.8
2018-01-12T15:33:10.935Z,81.8
2018-01-12T15:43:24.901Z,81.9
2018-01-12T15:53:39.017Z,81.7
2018-01-12T16:03:53.162Z,81.7
2018-01-12T16:14:08.328Z,81.5
2018-01-12T16:24:22.416Z,81.8
2018-01-12T16:34:36.162Z,81.5
2018-01-12T16:44:50.946Z,81.6
2018-01-12T16:55:05.309Z,82.1
2018-01-12T17:05:20.714Z,81.3
2018-01-12T17:15:35.093Z,81.8
2018-01-12T17:25:49.923Z,81.2
2018-01-12T17:36:04.849Z,81.4
2018-01-12T17:46:19.847Z,81.1
2018-01-12T17:56:33.812Z,81.7
2018-01-12T18:06:48.570Z,81.5
2018-01-12T18:17:03.325Z,81.6
2018-01-12T18:27:17.058Z,81.7
2018-01-12T18:37:32.261Z,81.4
2018-01-12T18:47:47.183Z,82.1
2018-01-12T18:58:01.476Z,81.5
2018-01-12T19:08:16.256Z,81.8
2018-01-12T19:18:31.092Z,82.1
2018-01-12T19:28:45.410Z,81.3
2018-01-12T19:39:00.921Z,81.3
2018-01-12T19:49:16.159Z,81.4
2018-01-12T19:59:30.967Z,81.5
2018-01-12T20:09:46.448Z,80.8
2018-01-12T20:20:00.944Z,80.4
2018-01-12T20:30:16.411Z,81
2018-01-12T20:40:31.799Z,80.4
2018-01-12T20:50:45.539Z,80.4
2018-01-12T21:00:59.264Z,80.5
2018-01-12T21:11:12.950Z,79.8
2018-01-12T21:21:26.875Z,79.6
2018-01-12T21:31:40.576Z,79.5
2018-01-12T21:41:55.053Z,79.2
2018-01-12T21:52:08.966Z,79.2
2018-01-12T22:02:24.587Z,79
2018-01-12T22:12:38.728Z,78.8
2018-01-12T22:22:53.378Z,78.5
2018-01-12T22:33:07.749Z,78.3
2018-01-12T22:43:22.851Z,78.7
2018-01-12T22:53:38.647Z,77.6
2018-01-12T23:03:52.484Z,77.8
2018-01-12T23:14:06.329Z,77.2
2018-01-12T23:24:20.455Z,77.2
2018-01-12T23:34:34.140Z,77.3
2018-01-12T23:44:48.045Z,77.5
2018-01-12T23:55:01.751Z,77.5
